createdAt,value
2023-05-15T00:01:56.020Z,8.57
2023-05-15T00:04:22.531Z,8.15
2023-05-15T00:06:49.223Z,8.00
2023-05-15T00:09:15.861Z,7.97
2023-05-15T00:11:42.359Z,7.72
2023-05-15T00:14:08.845Z,7.72
2023-05-15T00:16:35.486Z,7.18
2023-05-15T00:19:02.046Z,7.18
2023-05-15T00:21:28.507Z,8.13
2023-05-15T00:23:54.980Z,7.15
2023-05-15T00:26:23.317Z,7.55
2023-05-15T00:28:49.968Z,7.22
2023-05-15T00:31:16.978Z,7.68
2023-05-15T00:33:43.557Z,7.85
2023-05-15T00:36:10.055Z,8.30
2023-05-15T00:38:36.559Z,8.35
2023-05-15T00:41:04.856Z,8.15
2023-05-15T00:43:31.671Z,8.52
2023-05-15T00:45:59.279Z,8.05
2023-05-15T00:48:26.241Z,7.60
2023-05-15T00:50:53.376Z,7.55
2023-05-15T00:53:19.852Z,9.00
2023-05-15T00:55:46.951Z,9.02
2023-05-15T00:58:15.128Z,9.13
2023-05-15T01:00:43.340Z,10.00
2023-05-15T01:03:10.097Z,11.07
2023-05-15T01:05:37.023Z,10.73
2023-05-15T01:08:38.051Z,11.63
2023-05-15T01:11:06.386Z,11.15
2023-05-15T01:13:32.875Z,11.15
2023-05-15T01:15:59.462Z,10.90
2023-05-15T01:18:32.035Z,12.75
2023-05-15T01:21:01.802Z,11.88
2023-05-15T01:23:43.047Z,11.35
2023-05-15T01:26:28.689Z,11.70
2023-05-15T01:29:20.465Z,11.45
2023-05-15T01:31:51.196Z,10.45
2023-05-15T01:34:19.633Z,10.60
2023-05-15T01:36:49.259Z,11.32
2023-05-15T01:39:23.015Z,9.00
2023-05-15T01:41:55.926Z,8.07
2023-05-15T01:44:31.240Z,8.63
2023-05-15T01:47:07.792Z,8.82
2023-05-15T01:49:35.727Z,9.75
2023-05-15T01:52:08.036Z,9.88
2023-05-15T01:54:35.605Z,10.88
2023-05-15T01:57:02.749Z,10.43
2023-05-15T01:59:30.225Z,10.15
2023-05-15T02:01:57.816Z,9.98
2023-05-15T02:04:25.822Z,10.68
2023-05-15T02:06:53.635Z,10.23
2023-05-15T02:09:20.994Z,11.23
2023-05-15T02:11:47.913Z,10.40
2023-05-15T02:14:15.053Z,9.60
2023-05-15T02:16:41.681Z,9.55
2023-05-15T02:19:08.335Z,10.18
2023-05-15T02:21:35.450Z,10.00
2023-05-15T02:24:01.952Z,9.82
2023-05-15T02:26:49.291Z,10.48
2023-05-15T02:29:37.459Z,9.93
2023-05-15T02:32:14.238Z,10.13
2023-05-15T02:35:04.203Z,10.82
2023-05-15T02:37:32.234Z,11.18
2023-05-15T02:40:00.613Z,10.73
2023-05-15T02:42:28.182Z,10.07
2023-05-15T02:44:55.223Z,10.25
2023-05-15T02:47:23.325Z,10.50
2023-05-15T02:49:50.299Z,10.68
2023-05-15T02:52:17.356Z,9.93
2023-05-15T02:54:43.827Z,10.75
2023-05-15T02:57:10.288Z,10.90
2023-05-15T02:59:37.200Z,11.13
2023-05-15T03:02:03.750Z,10.85
2023-05-15T03:04:30.297Z,10.55
2023-05-15T03:06:56.876Z,10.32
2023-05-15T03:09:23.399Z,10.63
2023-05-15T03:11:49.876Z,11.25
2023-05-15T03:14:16.441Z,11.02
2023-05-15T03:16:42.971Z,11.52
2023-05-15T03:19:09.498Z,11.93
2023-05-15T03:21:35.984Z,11.75
2023-05-15T03:24:02.487Z,11.52
2023-05-15T03:26:28.956Z,11.35
2023-05-15T03:28:55.713Z,11.23
2023-05-15T03:31:22.267Z,11.85
2023-05-15T03:33:50.591Z,12.23
2023-05-15T03:36:17.067Z,11.27
2023-05-15T03:38:44.340Z,11.18
2023-05-15T03:41:11.819Z,11.45
2023-05-15T03:43:38.345Z,10.15
2023-05-15T03:46:05.680Z,10.82
2023-05-15T03:48:32.186Z,10.63
2023-05-15T03:50:58.706Z,10.18
2023-05-15T03:53:25.204Z,10.75
2023-05-15T03:55:52.594Z,9.98
2023-05-15T03:58:19.043Z,9.85
2023-05-15T04:00:45.597Z,9.88
2023-05-15T04:03:12.150Z,10.10
2023-05-15T04:05:38.701Z,9.52
2023-05-15T04:08:05.616Z,9.70
2023-05-15T04:10:33.542Z,9.77
2023-05-15T04:12:59.991Z,9.82
2023-05-15T04:15:29.073Z,9.98
2023-05-15T04:17:55.843Z,9.68
2023-05-15T04:20:24.290Z,9.68
2023-05-15T04:22:51.596Z,9.95
2023-05-15T04:25:18.454Z,9.77
2023-05-15T04:27:44.980Z,10.23
2023-05-15T04:30:12.711Z,9.90
2023-05-15T04:32:40.646Z,9.68
2023-05-15T04:35:12.263Z,9.75
2023-05-15T04:37:42.517Z,9.40
2023-05-15T04:40:09.584Z,9.65
2023-05-15T04:42:38.606Z,9.63
2023-05-15T04:45:06.383Z,9.63
2023-05-15T04:47:32.892Z,9.23
2023-05-15T04:49:59.343Z,9.55
2023-05-15T04:52:25.806Z,9.07
2023-05-15T04:54:55.503Z,9.05
2023-05-15T04:57:22.157Z,9.57
2023-05-15T04:59:48.789Z,8.60
2023-05-15T05:02:15.289Z,8.13
2023-05-15T05:04:45.875Z,8.45
2023-05-15T05:07:12.339Z,8.32
2023-05-15T05:09:41.994Z,7.80
2023-05-15T05:12:08.851Z,7.43
2023-05-15T05:14:35.529Z,7.38
2023-05-15T05:17:02.077Z,6.97
2023-05-15T05:19:28.538Z,7.30
2023-05-15T05:21:55.577Z,7.70
2023-05-15T05:24:22.096Z,6.97
2023-05-15T05:26:48.525Z,6.68
2023-05-15T05:29:14.998Z,6.88
2023-05-15T05:31:41.505Z,6.68
2023-05-15T05:34:09.176Z,6.53
2023-05-15T05:36:36.960Z,6.35
2023-05-15T05:39:04.586Z,6.28
2023-05-15T05:41:31.134Z,5.50
2023-05-15T05:43:57.571Z,6.13
2023-05-15T05:46:24.107Z,5.47
2023-05-15T05:48:50.579Z,6.07
2023-05-15T05:51:17.024Z,5.70
2023-05-15T05:53:43.654Z,5.68
2023-05-15T05:56:10.341Z,5.75
2023-05-15T05:58:36.930Z,5.10
2023-05-15T06:01:03.629Z,5.70
2023-05-15T06:03:30.236Z,5.82
2023-05-15T06:05:57.144Z,5.47
2023-05-15T06:08:23.615Z,5.50
2023-05-15T06:10:50.198Z,5.25
2023-05-15T06:13:16.784Z,5.38
2023-05-15T06:15:43.699Z,5.35
2023-05-15T06:18:10.287Z,5.50
2023-05-15T06:20:36.837Z,5.60
2023-05-15T06:23:03.318Z,5.18
2023-05-15T06:25:29.768Z,5.28
2023-05-15T06:27:56.248Z,4.60
2023-05-15T06:30:22.879Z,5.18
2023-05-15T06:32:49.504Z,5.28
2023-05-15T06:35:16.082Z,4.75
2023-05-15T06:37:42.639Z,5.25
2023-05-15T06:40:09.633Z,4.60
2023-05-15T06:42:36.255Z,4.50
2023-05-15T06:45:02.798Z,3.97
2023-05-15T06:47:29.316Z,4.28
2023-05-15T06:49:55.828Z,4.28
2023-05-15T06:52:22.347Z,4.70
2023-05-15T06:54:48.890Z,4.15
2023-05-15T06:57:15.739Z,4.35
2023-05-15T06:59:42.276Z,4.60
2023-05-15T07:02:09.013Z,4.22
2023-05-15T07:04:35.700Z,3.83
2023-05-15T07:07:02.269Z,4.07
2023-05-15T07:09:28.831Z,3.85
2023-05-15T07:11:55.323Z,4.63
2023-05-15T07:14:21.793Z,4.30
2023-05-15T07:16:48.655Z,3.67
2023-05-15T07:19:18.758Z,3.70
2023-05-15T07:21:45.260Z,3.70
2023-05-15T07:24:11.699Z,3.70
2023-05-15T07:26:50.279Z,3.60
2023-05-15T07:29:24.519Z,3.65
2023-05-15T07:31:51.053Z,4.20
2023-05-15T07:34:17.550Z,3.45
2023-05-15T07:36:44.036Z,3.67
2023-05-15T07:39:10.676Z,3.72
2023-05-15T07:41:37.236Z,3.53
2023-05-15T07:44:03.729Z,3.80
2023-05-15T07:46:30.293Z,3.58
2023-05-15T07:48:56.836Z,3.80
2023-05-15T07:51:23.357Z,3.70
2023-05-15T07:53:49.810Z,3.78
2023-05-15T07:56:16.550Z,3.53
2023-05-15T07:58:43.045Z,3.50
2023-05-15T08:01:09.581Z,4.13
2023-05-15T08:03:36.190Z,3.95
2023-05-15T08:06:02.774Z,4.10
2023-05-15T08:08:29.219Z,3.90
2023-05-15T08:10:55.688Z,3.78
2023-05-15T08:13:22.143Z,4.00
2023-05-15T08:15:48.692Z,3.97
2023-05-15T08:18:15.197Z,3.67
2023-05-15T08:20:41.654Z,3.92
2023-05-15T08:23:08.628Z,3.70
2023-05-15T08:25:35.141Z,3.72
2023-05-15T08:28:02.109Z,4.30
2023-05-15T08:30:28.582Z,3.70
2023-05-15T08:32:55.075Z,3.05
2023-05-15T08:35:21.570Z,3.05
2023-05-15T08:37:48.043Z,3.75
2023-05-15T08:40:14.972Z,3.70
2023-05-15T08:42:45.439Z,3.42
2023-05-15T08:45:13.077Z,3.70
2023-05-15T08:47:40.998Z,3.10
2023-05-15T08:50:15.860Z,3.00
2023-05-15T08:52:46.598Z,3.03
2023-05-15T08:55:17.032Z,2.70
2023-05-15T08:57:45.152Z,2.67
2023-05-15T09:00:14.380Z,3.08
2023-05-15T09:02:41.756Z,3.13
2023-05-15T09:05:09.610Z,3.08
2023-05-15T09:07:42.024Z,2.83
2023-05-15T09:10:09.675Z,2.47
2023-05-15T09:12:37.106Z,2.60
2023-05-15T09:15:13.635Z,2.58
2023-05-15T09:17:40.358Z,2.63
2023-05-15T09:20:08.253Z,2.50
2023-05-15T09:22:35.993Z,3.08
2023-05-15T09:25:04.123Z,2.67
2023-05-15T09:27:31.102Z,3.05
2023-05-15T09:30:08.907Z,3.00
2023-05-15T09:32:37.284Z,3.00
2023-05-15T09:35:04.566Z,3.70
2023-05-15T09:37:33.081Z,3.00
2023-05-15T09:40:10.765Z,3.17
2023-05-15T09:42:37.773Z,3.05
2023-05-15T09:45:04.943Z,2.60
2023-05-15T09:47:31.661Z,2.88
2023-05-15T09:49:58.340Z,2.95
2023-05-15T09:52:24.803Z,2.97
2023-05-15T09:54:51.954Z,3.00
2023-05-15T09:57:21.450Z,2.80
2023-05-15T09:59:48.671Z,3.13
2023-05-15T10:02:28.127Z,3.00
2023-05-15T10:04:56.600Z,3.47
2023-05-15T10:07:33.622Z,2.78
2023-05-15T10:10:02.240Z,3.15
2023-05-15T10:12:29.397Z,3.00
2023-05-15T10:14:57.042Z,2.90
2023-05-15T10:17:23.701Z,2.90
2023-05-15T10:19:58.479Z,3.10
2023-05-15T10:22:29.364Z,3.10
2023-05-15T10:25:10.788Z,3.22
2023-05-15T10:27:38.645Z,3.33
2023-05-15T10:30:05.675Z,4.57
2023-05-15T10:32:33.311Z,3.28
2023-05-15T10:35:00.272Z,2.80
2023-05-15T10:37:28.804Z,2.72
2023-05-15T10:39:56.035Z,3.20
2023-05-15T10:42:24.217Z,2.83
2023-05-15T10:44:50.821Z,3.08
2023-05-15T10:47:17.383Z,3.05
2023-05-15T10:49:43.923Z,2.85
2023-05-15T10:52:10.383Z,2.92
2023-05-15T10:54:37.034Z,2.90
2023-05-15T10:57:04.585Z,2.97
2023-05-15T10:59:32.062Z,3.38
2023-05-15T11:02:21.451Z,2.80
2023-05-15T11:04:48.108Z,2.70
2023-05-15T11:07:16.441Z,3.83
2023-05-15T11:09:43.014Z,3.28
2023-05-15T11:12:11.769Z,2.70
2023-05-15T11:14:40.551Z,2.95
2023-05-15T11:17:11.920Z,3.25
2023-05-15T11:20:00.268Z,2.58
2023-05-15T11:22:35.979Z,3.45
2023-05-15T11:25:05.903Z,2.65
2023-05-15T11:27:38.369Z,2.72
2023-05-15T11:30:13.476Z,2.67
2023-05-15T11:32:39.930Z,2.78
2023-05-15T11:35:12.325Z,3.00
2023-05-15T11:37:43.575Z,2.87
2023-05-15T11:40:14.698Z,2.75
2023-05-15T11:42:41.824Z,2.80
2023-05-15T11:45:11.464Z,2.75
2023-05-15T11:47:38.183Z,2.90
2023-05-15T11:50:06.595Z,2.92
2023-05-15T11:52:33.165Z,2.70
2023-05-15T11:55:00.050Z,2.60
2023-05-15T11:57:26.496Z,2.75
2023-05-15T11:59:55.936Z,2.65
2023-05-15T12:02:22.406Z,2.97
2023-05-15T12:04:49.767Z,3.05
2023-05-15T12:07:17.453Z,2.70
2023-05-15T12:09:43.987Z,2.65
2023-05-15T12:12:14.420Z,2.50
2023-05-15T12:14:41.285Z,3.00
2023-05-15T12:17:07.738Z,3.17
2023-05-15T12:19:34.685Z,2.88
2023-05-15T12:22:01.207Z,3.05
2023-05-15T12:24:27.701Z,2.92
2023-05-15T12:26:56.026Z,2.92
2023-05-15T12:29:23.936Z,2.85
2023-05-15T12:31:53.880Z,3.25
2023-05-15T12:34:21.276Z,2.90
2023-05-15T12:36:47.901Z,3.13
2023-05-15T12:39:14.413Z,3.30
2023-05-15T12:41:41.025Z,3.60
2023-05-15T12:44:16.185Z,3.05
2023-05-15T12:46:42.674Z,3.22
2023-05-15T12:49:10.068Z,3.17
2023-05-15T12:51:42.826Z,3.30
2023-05-15T12:54:18.052Z,3.47
2023-05-15T12:56:44.633Z,3.05
2023-05-15T12:59:12.313Z,3.17
2023-05-15T13:01:40.631Z,3.67
2023-05-15T13:04:07.334Z,3.60
2023-05-15T13:06:45.812Z,3.30
2023-05-15T13:09:13.694Z,3.60
2023-05-15T13:11:44.073Z,3.63
2023-05-15T13:14:17.482Z,3.75
2023-05-15T13:16:47.544Z,3.63
2023-05-15T13:19:14.149Z,3.28
2023-05-15T13:21:40.984Z,3.60
2023-05-15T13:24:09.879Z,3.63
2023-05-15T13:26:36.387Z,3.72
2023-05-15T13:29:02.910Z,3.70
2023-05-15T13:31:29.438Z,3.60
2023-05-15T13:33:56.135Z,3.53
2023-05-15T13:36:37.888Z,3.80
2023-05-15T13:39:04.712Z,4.22
2023-05-15T13:41:31.167Z,4.07
2023-05-15T13:43:57.626Z,4.50
2023-05-15T13:46:24.153Z,4.18
2023-05-15T13:48:50.712Z,4.47
2023-05-15T13:51:17.240Z,3.95
2023-05-15T13:53:43.727Z,4.00
2023-05-15T13:56:10.377Z,4.30
2023-05-15T13:58:36.864Z,3.88
2023-05-15T14:01:05.851Z,4.03
2023-05-15T14:03:32.505Z,4.45
2023-05-15T14:05:59.026Z,4.07
2023-05-15T14:08:25.624Z,4.35
2023-05-15T14:10:52.068Z,4.35
2023-05-15T14:13:18.665Z,4.95
2023-05-15T14:15:45.162Z,5.05
2023-05-15T14:18:11.709Z,5.50
2023-05-15T14:20:38.180Z,5.00
2023-05-15T14:23:04.651Z,4.70
2023-05-15T14:25:31.074Z,5.28
2023-05-15T14:27:57.534Z,5.32
2023-05-15T14:30:24.224Z,4.32
2023-05-15T14:32:50.888Z,3.90
2023-05-15T14:35:17.372Z,4.30
2023-05-15T14:37:43.880Z,3.78
2023-05-15T14:40:10.999Z,3.53
2023-05-15T14:42:37.460Z,3.65
2023-05-15T14:45:04.858Z,3.95
2023-05-15T14:47:31.374Z,3.63
2023-05-15T14:49:57.983Z,4.07
2023-05-15T14:52:24.462Z,3.30
2023-05-15T14:55:04.945Z,3.78
2023-05-15T14:57:35.721Z,3.70
2023-05-15T15:00:02.230Z,3.78
2023-05-15T15:02:28.820Z,3.30
2023-05-15T15:04:55.423Z,3.35
2023-05-15T15:07:21.916Z,3.58
2023-05-15T15:09:48.381Z,3.80
2023-05-15T15:12:14.881Z,3.20
2023-05-15T15:14:41.667Z,3.75
2023-05-15T15:17:08.147Z,3.65
2023-05-15T15:19:34.586Z,3.10
2023-05-15T15:22:01.062Z,3.47
2023-05-15T15:24:28.433Z,3.47
2023-05-15T15:26:54.904Z,3.70
2023-05-15T15:29:21.377Z,3.15
2023-05-15T15:31:47.897Z,3.08
2023-05-15T15:34:14.402Z,3.08
2023-05-15T15:36:41.458Z,3.08
2023-05-15T15:39:07.985Z,3.08
2023-05-15T15:41:37.684Z,2.92
2023-05-15T15:44:04.172Z,3.50
2023-05-15T15:46:30.763Z,3.20
2023-05-15T15:48:57.195Z,3.42
2023-05-15T15:51:23.667Z,3.10
2023-05-15T15:53:50.145Z,3.17
2023-05-15T15:56:16.634Z,3.30
2023-05-15T15:58:43.107Z,2.85
2023-05-15T16:01:09.627Z,3.25
2023-05-15T16:03:36.212Z,3.50
2023-05-15T16:06:02.714Z,2.78
2023-05-15T16:08:29.207Z,3.03
2023-05-15T16:10:55.834Z,3.20
2023-05-15T16:13:22.277Z,3.05
2023-05-15T16:15:48.759Z,3.13
2023-05-15T16:18:15.203Z,3.90
2023-05-15T16:20:41.642Z,3.20
2023-05-15T16:23:09.419Z,3.78
2023-05-15T16:25:36.766Z,4.00
2023-05-15T16:28:03.262Z,3.92
2023-05-15T16:30:44.240Z,4.13
2023-05-15T16:33:14.353Z,3.40
2023-05-15T16:35:40.810Z,3.53
2023-05-15T16:38:07.306Z,3.40
2023-05-15T16:40:33.830Z,4.03
2023-05-15T16:43:00.375Z,3.67
2023-05-15T16:45:26.899Z,3.88
2023-05-15T16:47:53.461Z,3.90
2023-05-15T16:50:20.573Z,3.22
2023-05-15T16:52:48.125Z,4.25
2023-05-15T16:55:15.998Z,3.88
2023-05-15T16:57:43.485Z,3.92
2023-05-15T17:00:10.302Z,4.20
2023-05-15T17:02:36.900Z,4.20
2023-05-15T17:05:03.811Z,4.05
2023-05-15T17:07:30.425Z,4.03
2023-05-15T17:09:56.936Z,3.60
2023-05-15T17:12:23.425Z,4.35
2023-05-15T17:14:49.888Z,4.00
2023-05-15T17:17:16.321Z,3.80
2023-05-15T17:19:42.864Z,4.00
2023-05-15T17:22:09.349Z,4.18
2023-05-15T17:24:49.344Z,4.35
2023-05-15T17:27:18.428Z,3.67
2023-05-15T17:29:45.260Z,3.90
2023-05-15T17:32:11.862Z,3.30
2023-05-15T17:34:38.456Z,3.33
2023-05-15T17:37:04.957Z,3.53
2023-05-15T17:39:31.451Z,3.50
2023-05-15T17:41:57.909Z,3.30
2023-05-15T17:44:29.667Z,4.20
2023-05-15T17:46:56.917Z,4.18
2023-05-15T17:49:24.010Z,4.63
2023-05-15T17:51:50.917Z,4.40
2023-05-15T17:54:17.836Z,4.18
2023-05-15T17:56:44.518Z,3.88
2023-05-15T17:59:10.969Z,3.80
2023-05-15T18:01:37.489Z,3.65
2023-05-15T18:04:04.304Z,4.18
2023-05-15T18:06:36.785Z,4.00
2023-05-15T18:09:03.293Z,4.07
2023-05-15T18:11:29.803Z,3.75
2023-05-15T18:13:56.328Z,4.20
2023-05-15T18:16:22.886Z,4.57
2023-05-15T18:18:51.871Z,4.07
2023-05-15T18:21:18.764Z,4.00
2023-05-15T18:23:45.386Z,4.68
2023-05-15T18:26:12.157Z,3.97
2023-05-15T18:28:38.585Z,3.53
2023-05-15T18:31:05.197Z,4.13
2023-05-15T18:33:32.345Z,4.43
2023-05-15T18:35:58.830Z,3.92
2023-05-15T18:38:25.302Z,4.22
2023-05-15T18:40:51.817Z,4.00
2023-05-15T18:43:18.269Z,4.53
2023-05-15T18:45:44.708Z,4.70
2023-05-15T18:48:11.202Z,4.72
2023-05-15T18:50:39.019Z,4.22
2023-05-15T18:53:05.558Z,4.80
2023-05-15T18:55:32.223Z,4.85
2023-05-15T18:57:58.677Z,5.20
2023-05-15T19:00:37.216Z,5.05
2023-05-15T19:03:05.282Z,5.25
2023-05-15T19:05:33.790Z,4.68
2023-05-15T19:08:00.546Z,4.68
2023-05-15T19:10:29.219Z,4.72
2023-05-15T19:12:56.369Z,4.72
2023-05-15T19:15:23.020Z,4.50
2023-05-15T19:17:49.596Z,5.10
2023-05-15T19:20:16.127Z,4.50
2023-05-15T19:22:42.654Z,4.70
2023-05-15T19:25:10.296Z,4.95
2023-05-15T19:27:37.549Z,5.03
2023-05-15T19:30:06.820Z,4.68
2023-05-15T19:32:33.657Z,4.75
2023-05-15T19:35:00.257Z,4.47
2023-05-15T19:37:26.730Z,4.70
2023-05-15T19:39:53.179Z,5.00
2023-05-15T19:42:19.642Z,4.63
2023-05-15T19:44:46.103Z,4.90
2023-05-15T19:47:12.633Z,4.40
2023-05-15T19:49:39.112Z,5.00
2023-05-15T19:52:05.709Z,4.63
2023-05-15T19:54:32.240Z,4.65
2023-05-15T19:57:02.490Z,4.97
2023-05-15T19:59:29.433Z,5.10
2023-05-15T20:01:56.061Z,4.70
2023-05-15T20:04:22.681Z,4.78
2023-05-15T20:06:49.203Z,5.18
2023-05-15T20:09:15.678Z,5.05
2023-05-15T20:11:42.206Z,5.20
2023-05-15T20:14:08.678Z,5.30
2023-05-15T20:16:35.359Z,5.38
2023-05-15T20:19:02.009Z,4.95
2023-05-15T20:21:29.664Z,4.97
2023-05-15T20:23:56.438Z,5.20
2023-05-15T20:26:22.989Z,5.40
2023-05-15T20:28:49.441Z,5.32
2023-05-15T20:31:16.357Z,5.40
2023-05-15T20:33:42.933Z,5.60
2023-05-15T20:36:09.370Z,5.40
2023-05-15T20:38:35.953Z,5.75
2023-05-15T20:41:02.439Z,5.25
2023-05-15T20:43:28.907Z,5.20
2023-05-15T20:45:55.622Z,5.40
2023-05-15T20:48:22.092Z,5.50
2023-05-15T20:50:50.105Z,6.32
2023-05-15T20:53:16.629Z,6.43
2023-05-15T20:55:43.308Z,6.00
2023-05-15T20:58:09.923Z,6.63
2023-05-15T21:00:36.467Z,5.80
2023-05-15T21:03:03.120Z,6.75
2023-05-15T21:05:29.651Z,6.72
2023-05-15T21:07:56.093Z,6.90
2023-05-15T21:10:22.583Z,6.45
2023-05-15T21:12:49.149Z,7.40
2023-05-15T21:15:15.757Z,7.30
2023-05-15T21:17:42.231Z,7.63
2023-05-15T21:20:09.122Z,8.55
2023-05-15T21:22:35.623Z,8.05
2023-05-15T21:25:02.102Z,8.18
2023-05-15T21:27:28.617Z,8.18
2023-05-15T21:29:55.162Z,7.57
2023-05-15T21:32:23.288Z,7.90
2023-05-15T21:34:49.955Z,8.05
2023-05-15T21:37:16.466Z,8.02
2023-05-15T21:39:42.927Z,8.55
2023-05-15T21:42:10.024Z,8.20
2023-05-15T21:44:36.775Z,8.52
2023-05-15T21:47:03.387Z,8.20
2023-05-15T21:49:29.890Z,8.98
2023-05-15T21:51:56.377Z,8.68
2023-05-15T21:54:22.856Z,8.40
2023-05-15T21:56:49.317Z,8.90
2023-05-15T21:59:15.820Z,8.38
2023-05-15T22:01:42.448Z,8.23
2023-05-15T22:04:09.113Z,7.90
2023-05-15T22:06:35.768Z,8.55
2023-05-15T22:09:02.281Z,8.05
2023-05-15T22:11:28.777Z,8.48
2023-05-15T22:13:55.297Z,8.05
2023-05-15T22:16:21.825Z,7.85
2023-05-15T22:18:48.492Z,8.35
2023-05-15T22:21:15.575Z,8.15
2023-05-15T22:23:42.942Z,8.52
2023-05-15T22:26:09.478Z,8.88
2023-05-15T22:28:36.059Z,8.80
2023-05-15T22:31:04.197Z,9.18
2023-05-15T22:33:30.710Z,8.90
2023-05-15T22:35:57.188Z,9.18
2023-05-15T22:38:23.830Z,9.05
2023-05-15T22:40:51.134Z,9.35
2023-05-15T22:43:17.646Z,8.20
2023-05-15T22:45:44.135Z,8.68
2023-05-15T22:48:10.666Z,8.48
2023-05-15T22:50:37.400Z,9.13
2023-05-15T22:53:03.974Z,8.10
2023-05-15T22:55:30.400Z,7.82
2023-05-15T22:57:56.859Z,8.20
2023-05-15T23:00:23.433Z,7.88
2023-05-15T23:02:50.077Z,8.48
2023-05-15T23:05:16.648Z,7.85
2023-05-15T23:07:43.116Z,7.90
2023-05-15T23:10:09.705Z,7.80
2023-05-15T23:12:36.178Z,8.00
2023-05-15T23:15:02.694Z,7.93
2023-05-15T23:17:29.184Z,8.20
2023-05-15T23:19:55.708Z,8.05
2023-05-15T23:22:22.389Z,7.95
2023-05-15T23:24:48.844Z,8.90
2023-05-15T23:27:15.312Z,8.90
2023-05-15T23:29:41.754Z,9.20
2023-05-15T23:32:08.286Z,8.95
2023-05-15T23:34:34.723Z,9.15
2023-05-15T23:37:01.197Z,9.45
2023-05-15T23:39:27.652Z,9.18
2023-05-15T23:41:54.227Z,9.48
2023-05-15T23:44:20.755Z,9.75
2023-05-15T23:46:47.356Z,9.38
2023-05-15T23:49:13.902Z,9.70
2023-05-15T23:51:40.381Z,9.82
2023-05-15T23:54:07.428Z,9.73
2023-05-15T23:56:33.878Z,9.57
2023-05-15T23:59:00.725Z,9.52
